Time;durP1;ratioP1;P1;durP2;ratioP2;P2;SDS_P1;SDS_P2;PMS_P1;PMS_P2;Temp;Humidity;BMP_temperature;BMP_pressure;BME280_temperature;BME280_humidity;BME280_pressure;Samples;Min_cycle;Max_cycle;Signal;HPM_P1;HPM_P2
2023/03/31 00:04:04;;;;;;;3.20;2.30;;;;;;;8.74;85.29;98435.94;436747;1250;140396;-68
2023/03/31 00:14:11;;;;;;;4.50;3.30;;;;;;;8.75;84.88;98442.30;436667;1253;139111;-68
2023/03/31 00:24:17;;;;;;;6.90;4.40;;;;;;;8.73;84.87;98445.27;436685;1253;139232;-67
2023/03/31 00:34:23;;;;;;;8.20;6.80;;;;;;;8.74;85.08;98444.33;436971;1250;139198;-68
2023/03/31 00:44:33;;;;;;;9.70;8.70;;;;;;;8.73;85.49;98440.57;436431;1251;140353;-67
2023/03/31 00:54:40;;;;;;;8.40;7.50;;;;;;;8.69;85.70;98430.38;437668;1251;138820;-67
2023/03/31 01:04:56;;;;;;;12.30;8.20;;;;;;;8.62;85.85;98424.21;437093;1251;139195;-67
2023/03/31 01:15:03;;;;;;;10.90;8.60;;;;;;;8.53;86.24;98414.95;436439;1250;139403;-68
2023/03/31 01:25:46;;;;;;;8.10;7.00;;;;;;;8.36;86.46;98412.54;436382;1250;140699;-69
2023/03/31 01:36:07;;;;;;;10.40;7.30;;;;;;;8.14;87.52;98431.32;436694;1252;139518;-67
2023/03/31 01:46:21;;;;;;;8.20;7.30;;;;;;;8.07;88.07;98432.02;436788;1253;141370;-67
2023/03/31 01:56:32;;;;;;;10.30;9.20;;;;;;;7.96;88.61;98433.65;436451;1251;140179;-68
2023/03/31 02:06:45;;;;;;;11.30;8.60;;;;;;;7.87;89.00;98430.52;436876;1250;139349;-68
2023/03/31 02:16:57;;;;;;;8.50;7.60;;;;;;;7.77;90.10;98425.11;436994;1251;139509;-69
2023/03/31 02:27:10;;;;;;;11.90;8.20;;;;;;;7.74;90.82;98425.19;436835;1253;139042;-68
2023/03/31 02:37:16;;;;;;;9.40;6.60;;;;;;;7.75;91.44;98422.48;436346;1251;138895;-67
2023/03/31 02:47:23;;;;;;;10.30;8.10;;;;;;;7.71;92.04;98416.42;436607;1250;139394;-67
2023/03/31 02:57:50;;;;;;;10.50;8.20;;;;;;;7.71;92.85;98411.20;436669;1251;138897;-68
2023/03/31 03:08:06;;;;;;;9.80;6.60;;;;;;;7.75;93.12;98415.00;437485;1251;139793;-68
2023/03/31 03:18:12;;;;;;;6.60;6.00;;;;;;;7.74;93.40;98411.58;436434;1251;139620;-68
2023/03/31 03:28:17;;;;;;;5.50;5.00;;;;;;;7.71;93.56;98414.70;436580;1251;138604;-68
2023/03/31 03:38:23;;;;;;;5.10;4.50;;;;;;;7.68;93.82;98422.05;437053;1251;138781;-69
2023/03/31 03:48:29;;;;;;;8.20;5.70;;;;;;;7.64;93.88;98422.52;436813;1251;139087;-68
2023/03/31 03:58:34;;;;;;;5.20;4.10;;;;;;;7.53;93.94;98421.54;437090;1251;138271;-68
2023/03/31 04:08:40;;;;;;;8.40;4.90;;;;;;;7.34;94.06;98419.18;436963;1253;138375;-69
2023/03/31 04:18:47;;;;;;;6.30;4.90;;;;;;;7.14;94.29;98415.84;439264;1250;138984;-69
2023/03/31 04:28:57;;;;;;;7.60;4.90;;;;;;;7.07;94.65;98409.56;436425;1251;138561;-67
2023/03/31 04:39:03;;;;;;;8.10;6.80;;;;;;;7.00;94.95;98399.25;437649;1253;140274;-68
2023/03/31 04:49:09;;;;;;;13.40;8.30;;;;;;;7.04;95.22;98388.52;436658;1251;139593;-68
2023/03/31 04:59:15;;;;;;;13.20;8.40;;;;;;;7.09;94.98;98385.06;437179;1253;138905;-68
2023/03/31 05:09:21;;;;;;;8.70;6.40;;;;;;;7.08;95.10;98381.98;436624;1253;140112;-67
2023/03/31 05:19:27;;;;;;;15.20;8.30;;;;;;;7.04;95.03;98373.55;438169;1250;138851;-67
2023/03/31 05:29:33;;;;;;;11.50;8.10;;;;;;;7.01;94.83;98366.61;436375;1251;139205;-69
2023/03/31 05:39:38;;;;;;;7.90;5.90;;;;;;;7.04;94.92;98364.38;437446;1251;139835;-69
2023/03/31 05:49:45;;;;;;;8.60;6.60;;;;;;;7.08;94.96;98369.28;439706;1251;138797;-68
2023/03/31 05:59:51;;;;;;;8.60;6.20;;;;;;;7.16;94.76;98365.09;438316;1251;138430;-69
2023/03/31 06:09:56;;;;;;;8.70;6.10;;;;;;;7.33;94.59;98348.08;436742;1251;138954;-69
2023/03/31 06:20:03;;;;;;;7.20;5.00;;;;;;;7.56;94.16;98341.60;436797;1251;139305;-69
2023/03/31 06:30:29;;;;;;;11.40;6.30;;;;;;;7.71;93.41;98341.91;436951;1253;138714;-69
2023/03/31 06:40:35;;;;;;;8.40;5.70;;;;;;;7.83;92.97;98341.58;438975;1250;138450;-69
2023/03/31 06:50:41;;;;;;;8.40;5.20;;;;;;;8.04;92.73;98338.67;439219;1251;139002;-69
2023/03/31 07:00:47;;;;;;;4.80;4.30;;;;;;;8.41;92.30;98333.34;438953;1250;139523;-70
2023/03/31 07:10:57;;;;;;;10.40;5.00;;;;;;;8.72;91.40;98338.02;437094;1253;138974;-70
2023/03/31 07:21:04;;;;;;;6.80;5.40;;;;;;;8.93;90.60;98339.02;438932;1249;139376;-68
2023/03/31 07:31:15;;;;;;;6.50;5.30;;;;;;;9.23;90.00;98337.08;438738;1253;138719;-69
2023/03/31 07:41:22;;;;;;;7.90;5.40;;;;;;;9.90;89.59;98318.86;439053;1251;139027;-70
2023/03/31 07:51:28;;;;;;;7.30;5.00;;;;;;;10.66;88.12;98311.23;439525;1251;139845;-69
2023/03/31 08:01:34;;;;;;;7.40;4.90;;;;;;;11.36;86.59;98291.77;439003;1253;139946;-70
2023/03/31 08:11:40;;;;;;;10.60;4.90;;;;;;;12.39;83.77;98291.56;438881;1251;139252;-70
2023/03/31 08:21:45;;;;;;;8.20;5.20;;;;;;;12.64;81.62;98279.23;439013;1250;138802;-71
2023/03/31 08:31:51;;;;;;;5.30;4.50;;;;;;;12.59;80.72;98275.14;439365;1250;139266;-71
2023/03/31 08:42:01;;;;;;;6.30;4.60;;;;;;;12.89;79.87;98264.61;439224;1251;140279;-71
2023/03/31 08:52:11;;;;;;;7.20;5.10;;;;;;;13.54;78.66;98253.86;439365;1253;138764;-70
2023/03/31 09:02:26;;;;;;;8.60;4.80;;;;;;;13.73;77.16;98249.80;438992;1250;140432;-70
2023/03/31 09:12:45;;;;;;;8.40;5.00;;;;;;;13.83;75.99;98246.33;438991;1251;139270;-69
2023/03/31 09:22:57;;;;;;;8.10;5.20;;;;;;;13.96;74.82;98229.96;439003;1253;138701;-70
2023/03/31 09:33:14;;;;;;;12.30;4.60;;;;;;;13.98;74.08;98219.52;438922;1253;139700;-69
2023/03/31 09:43:24;;;;;;;6.70;4.30;;;;;;;13.98;73.30;98208.67;439119;1253;140558;-71
2023/03/31 09:53:38;;;;;;;9.30;4.60;;;;;;;13.76;73.19;98200.40;439198;1253;138665;-72
2023/03/31 10:03:52;;;;;;;4.40;3.80;;;;;;;14.16;73.07;98187.11;439323;1253;139534;-73
2023/03/31 10:14:02;;;;;;;5.10;3.20;;;;;;;15.12;71.80;98167.14;439442;1253;141577;-71
2023/03/31 10:24:11;;;;;;;3.60;2.80;;;;;;;16.23;70.35;98153.48;439415;1254;139311;-71
2023/03/31 10:34:18;;;;;;;6.70;3.60;;;;;;;17.15;67.93;98132.30;439204;1254;138287;-72
2023/03/31 10:44:36;;;;;;;6.10;4.10;;;;;;;17.66;66.32;98115.86;439153;1253;138028;-71
2023/03/31 10:54:45;;;;;;;;;;;;;;;17.73;64.63;98100.03;439193;1253;138989;-72
2023/03/31 11:05:04;;;;;;;4.10;3.30;;;;;;;17.54;63.75;98093.08;439174;1253;124380;-71
2023/03/31 11:15:21;;;;;;;4.80;2.70;;;;;;;17.42;62.78;98077.63;439056;1251;138686;-71
2023/03/31 11:25:35;;;;;;;2.90;1.70;;;;;;;17.34;61.74;98059.77;438945;1253;138592;-72
2023/03/31 11:36:00;;;;;;;2.20;1.70;;;;;;;17.45;61.15;98047.43;438992;1251;139095;-72
2023/03/31 11:46:13;;;;;;;6.00;3.30;;;;;;;17.27;60.78;98044.67;439264;1253;138111;-71
2023/03/31 11:56:21;;;;;;;3.10;1.90;;;;;;;16.79;60.79;98022.39;439418;1253;138171;-72
2023/03/31 12:06:33;;;;;;;5.60;2.80;;;;;;;16.56;60.81;98005.59;439150;1251;138423;-72
2023/03/31 12:16:44;;;;;;;4.60;1.90;;;;;;;16.01;60.74;97994.75;439234;1253;137406;-71
2023/03/31 12:26:59;;;;;;;4.20;1.80;;;;;;;15.44;61.39;97982.48;439417;1253;138804;-71
2023/03/31 12:37:29;;;;;;;4.50;2.10;;;;;;;15.06;61.96;97969.14;439113;1250;138735;-70
2023/03/31 12:47:53;;;;;;;3.80;1.50;;;;;;;14.62;62.82;97954.30;439411;1252;138503;-70
2023/03/31 12:58:28;;;;;;;2.90;2.20;;;;;;;14.51;63.04;97936.92;439502;1253;138003;-71
2023/03/31 13:08:56;;;;;;;9.60;2.40;;;;;;;15.12;62.67;97920.08;439324;1253;138755;-72
2023/03/31 13:19:02;;;;;;;7.40;1.60;;;;;;;15.82;60.99;97895.46;439701;1252;139321;-71
2023/03/31 13:29:39;;;;;;;1.10;0.90;;;;;;;16.27;59.51;97873.13;439488;1254;137998;-72
2023/03/31 13:39:56;;;;;;;;;;;;;;;16.52;59.00;97854.69;439672;1251;138348;-71
2023/03/31 13:50:19;;;;;;;4.30;1.20;;;;;;;16.66;57.42;97836.14;439546;1253;126760;-72
2023/03/31 14:00:37;;;;;;;3.80;1.50;;;;;;;16.54;53.85;97819.16;439205;1253;140214;-72
2023/03/31 14:10:44;;;;;;;5.20;1.40;;;;;;;16.39;53.29;97800.20;439031;1251;138180;-71
2023/03/31 14:21:04;;;;;;;2.50;1.30;;;;;;;16.15;52.93;97786.13;438848;1251;138390;-72
2023/03/31 14:31:22;;;;;;;2.20;1.60;;;;;;;15.67;53.34;97768.31;438882;1251;138655;-71
2023/03/31 14:41:29;;;;;;;2.80;0.90;;;;;;;14.96;54.79;97790.44;438954;1253;139573;-71
2023/03/31 14:51:35;;;;;;;6.40;4.00;;;;;;;13.29;58.71;97783.56;439289;1251;137978;-70
2023/03/31 15:01:40;;;;;;;9.10;6.40;;;;;;;13.11;62.28;97763.02;438985;1253;138502;-71
2023/03/31 15:11:47;;;;;;;9.40;8.20;;;;;;;13.09;64.67;97749.86;439546;1251;138593;-75
2023/03/31 15:22:00;;;;;;;12.20;9.10;;;;;;;13.13;65.89;97743.01;439169;1253;139280;-71
2023/03/31 15:32:14;;;;;;;6.00;3.50;;;;;;;13.11;65.89;97739.92;439948;1251;139528;-70
2023/03/31 15:42:21;;;;;;;2.60;1.30;;;;;;;12.45;64.86;97732.38;439148;1250;138988;-70
2023/03/31 15:52:35;;;;;;;3.60;1.50;;;;;;;12.03;66.07;97723.27;439633;1251;139572;-71
2023/03/31 16:02:45;;;;;;;8.90;4.20;;;;;;;11.83;66.90;97710.34;439568;1250;139056;-70
2023/03/31 16:12:57;;;;;;;9.10;5.90;;;;;;;11.74;68.13;97693.87;439329;1253;140306;-71
2023/03/31 16:23:12;;;;;;;12.40;6.80;;;;;;;11.71;68.69;97681.02;439480;1250;139271;-72
2023/03/31 16:33:19;;;;;;;8.90;5.10;;;;;;;11.62;68.82;97676.39;439258;1253;140461;-71
2023/03/31 16:43:24;;;;;;;;;;;;;;;11.49;69.42;97673.52;439631;1249;139185;-70
2023/03/31 16:53:33;;;;;;;11.30;7.00;;;;;;;11.37;70.10;97667.32;439570;1251;126070;-72
2023/03/31 17:03:41;;;;;;;6.70;3.90;;;;;;;11.29;70.09;97664.04;440160;1251;139360;-71
2023/03/31 17:13:48;;;;;;;18.50;9.60;;;;;;;11.17;69.59;97659.78;439636;1253;138577;-71
2023/03/31 17:23:54;;;;;;;12.10;6.40;;;;;;;11.01;70.02;97655.90;439609;1251;139792;-70
2023/03/31 17:34:00;;;;;;;7.90;5.60;;;;;;;10.89;71.03;97662.46;439486;1250;139404;-70
2023/03/31 17:44:07;;;;;;;5.90;3.80;;;;;;;10.72;72.92;97666.38;439535;1251;138966;-70
2023/03/31 17:54:13;;;;;;;15.20;8.00;;;;;;;10.27;74.76;97674.40;439573;1250;139384;-71
2023/03/31 18:04:19;;;;;;;8.80;5.40;;;;;;;9.84;76.61;97675.66;439445;1251;139746;-72
2023/03/31 18:14:26;;;;;;;7.00;4.90;;;;;;;9.58;78.41;97681.65;439375;1250;138958;-71
2023/03/31 18:24:33;;;;;;;13.10;8.30;;;;;;;9.50;79.73;97676.61;440004;1250;139719;-71
2023/03/31 18:34:39;;;;;;;16.20;9.20;;;;;;;9.45;80.92;97665.59;440031;1251;139053;-71
2023/03/31 18:44:44;;;;;;;17.70;10.50;;;;;;;9.39;82.34;97635.64;439880;1251;139221;-71
2023/03/31 18:54:52;;;;;;;21.90;15.20;;;;;;;9.36;83.44;97624.62;439155;1251;139712;-71
2023/03/31 19:04:59;;;;;;;17.70;14.80;;;;;;;9.33;84.92;97634.45;439269;1250;139032;-71
2023/03/31 19:15:06;;;;;;;17.70;14.80;;;;;;;9.31;86.13;97631.52;438779;1253;139806;-72
2023/03/31 19:25:13;;;;;;;22.30;13.10;;;;;;;9.31;87.82;97624.84;439311;1252;141414;-72
2023/03/31 19:35:20;;;;;;;10.40;8.10;;;;;;;9.29;89.31;97618.41;439494;1250;139450;-72
2023/03/31 19:45:26;;;;;;;19.80;13.40;;;;;;;9.27;90.49;97601.32;439627;1253;139217;-73
2023/03/31 19:55:33;;;;;;;15.10;12.60;;;;;;;9.14;91.56;97606.88;439209;1253;139984;-73
2023/03/31 20:05:39;;;;;;;25.10;18.40;;;;;;;9.07;92.84;97608.17;439504;1251;139498;-72
2023/03/31 20:15:45;;;;;;;11.00;9.60;;;;;;;9.00;93.98;97609.36;439867;1250;138746;-72
2023/03/31 20:25:52;;;;;;;15.70;10.90;;;;;;;8.92;94.75;97590.06;439601;1251;138683;-72
2023/03/31 20:36:02;;;;;;;17.50;12.30;;;;;;;8.89;95.59;97592.10;439437;1250;139549;-71
2023/03/31 20:46:09;;;;;;;15.20;10.40;;;;;;;8.84;96.09;97583.36;439822;1253;138756;-72
2023/03/31 20:56:18;;;;;;;12.20;9.50;;;;;;;8.74;96.08;97583.52;439661;1250;138992;-71
2023/03/31 21:06:24;;;;;;;9.60;8.60;;;;;;;8.63;96.33;97581.86;439268;1251;139637;-72
2023/03/31 21:16:30;;;;;;;10.50;7.60;;;;;;;8.53;96.60;97579.36;439408;1250;139688;-72
2023/03/31 21:26:36;;;;;;;9.70;7.90;;;;;;;8.46;96.95;97570.55;439187;1251;138823;-72
2023/03/31 21:36:42;;;;;;;12.20;9.10;;;;;;;8.40;97.11;97564.77;439201;1250;139283;-72
2023/03/31 21:46:48;;;;;;;10.90;7.70;;;;;;;8.33;97.35;97560.68;439404;1251;139336;-71
2023/03/31 21:56:54;;;;;;;12.50;8.50;;;;;;;8.24;97.68;97560.25;439183;1253;140729;-71
2023/03/31 22:07:00;;;;;;;9.30;8.20;;;;;;;8.16;98.08;97556.59;439164;1250;140024;-71
2023/03/31 22:17:06;;;;;;;11.50;8.10;;;;;;;8.11;98.47;97554.02;439526;1253;138524;-71
2023/03/31 22:27:12;;;;;;;10.70;8.70;;;;;;;8.05;98.70;97554.75;439473;1250;138584;-72
2023/03/31 22:37:18;;;;;;;11.10;8.10;;;;;;;8.04;99.03;97560.45;439016;1251;139464;-74
2023/03/31 22:47:24;;;;;;;12.50;7.50;;;;;;;8.04;99.23;97566.86;439671;1253;138745;-73
2023/03/31 22:57:31;;;;;;;13.10;9.30;;;;;;;8.05;99.36;97564.15;439563;1254;139040;-73
2023/03/31 23:07:37;;;;;;;12.20;8.20;;;;;;;8.06;99.67;97560.58;439147;1253;139332;-73
2023/03/31 23:17:43;;;;;;;13.00;10.60;;;;;;;8.02;99.85;97554.78;439108;1251;138756;-73
2023/03/31 23:27:49;;;;;;;11.90;10.40;;;;;;;7.98;100.00;97563.31;439341;1253;141193;-72
2023/03/31 23:37:54;;;;;;;10.60;8.80;;;;;;;7.97;100.00;97559.90;439155;1250;140630;-73
2023/03/31 23:48:00;;;;;;;14.80;10.30;;;;;;;7.94;100.00;97555.48;439284;1253;139989;-73
2023/03/31 23:58:06;;;;;;;11.60;10.40;;;;;;;7.92;100.00;97557.20;439258;1253;139171;-72
